createdAt,value
2018-04-11T00:00:05.069Z,42.40
2018-04-11T00:01:06.858Z,42.40
2018-04-11T00:02:09.031Z,43.00
2018-04-11T00:03:11.197Z,43.40
2018-04-11T00:05:15.794Z,42.40
2018-04-11T00:06:18.042Z,44.00
2018-04-11T00:07:19.556Z,42.80
2018-04-11T00:08:21.698Z,43.70
2018-04-11T00:09:23.120Z,42.60
2018-04-11T00:10:25.277Z,42.90
2018-04-11T00:11:26.969Z,42.90
2018-04-11T00:13:20.400Z,42.90
2018-04-11T00:14:21.843Z,42.90
2018-04-11T00:15:23.294Z,42.70
2018-04-11T00:16:24.706Z,42.60
2018-04-11T00:17:26.155Z,43.10
2018-04-11T00:18:27.581Z,43.00
2018-04-11T00:19:29.032Z,42.60
2018-04-11T00:20:30.609Z,43.00
2018-04-11T00:21:32.066Z,43.00
2018-04-11T00:22:35.273Z,43.50
2018-04-11T00:23:36.729Z,43.30
2018-04-11T00:25:41.324Z,43.50
2018-04-11T00:26:42.773Z,43.40
2018-04-11T00:27:44.973Z,43.60
2018-04-11T00:28:47.146Z,44.00
2018-04-11T00:29:50.070Z,43.80
2018-04-11T00:30:51.493Z,43.30
2018-04-11T00:31:52.918Z,43.40
2018-04-11T00:32:54.339Z,43.80
2018-04-11T00:33:55.845Z,43.50
2018-04-11T00:34:57.257Z,43.50
2018-04-11T00:35:58.806Z,44.00
2018-04-11T00:37:00.239Z,43.70
2018-04-11T00:38:01.710Z,44.00
2018-04-11T00:39:03.253Z,43.70
2018-04-11T00:40:04.721Z,43.80
2018-04-11T00:41:06.164Z,44.20
2018-04-11T00:42:07.657Z,44.00
2018-04-11T00:43:09.351Z,43.70
2018-04-11T00:45:14.398Z,43.80
2018-04-11T00:46:15.853Z,43.90
2018-04-11T00:47:17.289Z,43.90
2018-04-11T00:49:22.170Z,43.80
2018-04-11T00:50:25.068Z,44.10
2018-04-11T00:51:26.498Z,43.80
2018-04-11T00:52:27.920Z,43.80
2018-04-11T00:53:30.167Z,44.80
2018-04-11T00:54:32.368Z,44.30
2018-04-11T00:56:08.338Z,43.90
2018-04-11T00:57:09.774Z,43.90
2018-04-11T00:58:12.326Z,44.30
2018-04-11T00:59:14.116Z,44.20
2018-04-11T01:00:15.970Z,44.40
2018-04-11T01:01:18.224Z,45.00
2018-04-11T01:02:19.642Z,44.00
2018-04-11T01:03:21.058Z,44.00
2018-04-11T01:04:22.487Z,44.20
2018-04-11T01:05:25.043Z,44.50
2018-04-11T01:06:27.227Z,45.40
2018-04-11T01:07:28.726Z,44.30
2018-04-11T01:08:30.226Z,44.30
2018-04-11T01:09:32.126Z,44.40
2018-04-11T01:10:33.578Z,44.40
2018-04-11T01:11:35.012Z,44.70
2018-04-11T01:12:37.206Z,45.20
2018-04-11T01:13:38.673Z,44.60
2018-04-11T01:14:40.142Z,44.30
2018-04-11T01:15:41.573Z,44.40
2018-04-11T01:16:43.037Z,44.30
2018-04-11T01:17:44.494Z,44.50
2018-04-11T01:18:45.916Z,44.50
2018-04-11T01:19:47.396Z,44.60
2018-04-11T01:20:48.914Z,44.60
2018-04-11T01:21:50.343Z,44.60
2018-04-11T01:22:53.276Z,45.00
2018-04-11T01:23:55.434Z,44.90
2018-04-11T01:24:57.150Z,44.60
2018-04-11T01:25:58.614Z,44.60
2018-04-11T01:27:00.083Z,44.70
2018-04-11T01:28:01.550Z,44.60
2018-04-11T01:29:03.006Z,44.80
2018-04-11T01:30:04.481Z,45.00
2018-04-11T01:31:05.969Z,44.70
2018-04-11T01:32:08.128Z,45.60
2018-04-11T01:33:10.280Z,45.50
2018-04-11T01:34:11.673Z,44.70
2018-04-11T01:35:13.358Z,44.70
2018-04-11T01:36:14.748Z,44.90
2018-04-11T01:37:17.284Z,45.00
2018-04-11T01:38:18.738Z,44.70
2018-04-11T01:39:20.194Z,44.80
2018-04-11T01:40:21.665Z,44.80
2018-04-11T01:41:23.074Z,45.00
2018-04-11T01:42:24.490Z,45.20
2018-04-11T01:43:26.698Z,45.70
2018-04-11T01:44:28.169Z,45.00
2018-04-11T01:45:29.629Z,45.00
2018-04-11T01:46:31.097Z,44.90
2018-04-11T01:47:33.275Z,46.20
2018-04-11T01:48:35.457Z,45.60
2018-04-11T01:49:37.625Z,45.10
2018-04-11T01:50:45.042Z,45.30
2018-04-11T01:51:46.473Z,45.00
2018-04-11T01:52:47.913Z,44.90
2018-04-11T01:53:49.413Z,45.00
2018-04-11T01:54:50.848Z,45.00
2018-04-11T01:55:52.298Z,45.20
2018-04-11T01:56:53.744Z,45.20
2018-04-11T01:57:55.160Z,45.30
2018-04-11T01:58:57.313Z,46.10
2018-04-11T01:59:58.797Z,45.30
2018-04-11T02:01:00.296Z,45.60
2018-04-11T02:02:01.769Z,45.30
2018-04-11T02:03:03.219Z,45.30
2018-04-11T02:04:04.677Z,45.40
2018-04-11T02:05:06.074Z,45.90
2018-04-11T02:06:07.546Z,45.50
2018-04-11T02:07:08.989Z,45.60
2018-04-11T02:08:10.430Z,45.50
2018-04-11T02:09:11.856Z,45.60
2018-04-11T02:10:14.764Z,46.00
2018-04-11T02:11:16.220Z,45.70
2018-04-11T02:12:17.677Z,45.70
2018-04-11T02:13:20.060Z,46.10
2018-04-11T02:14:21.551Z,45.80
2018-04-11T02:15:23.717Z,47.00
2018-04-11T02:16:26.926Z,46.30
2018-04-11T02:17:29.889Z,46.50
2018-04-11T02:18:31.349Z,46.10
2018-04-11T02:19:32.801Z,46.40
2018-04-11T02:20:34.236Z,46.20
2018-04-11T02:21:35.753Z,46.30
2018-04-11T02:22:37.160Z,46.40
2018-04-11T02:23:38.585Z,46.40
2018-04-11T02:24:40.015Z,46.50
2018-04-11T02:25:41.439Z,46.30
2018-04-11T02:27:47.092Z,47.40
2018-04-11T02:28:50.021Z,47.00
2018-04-11T02:29:51.461Z,46.70
2018-04-11T02:30:52.873Z,46.70
2018-04-11T02:31:55.353Z,47.60
2018-04-11T02:32:57.527Z,47.70
2018-04-11T02:34:00.125Z,47.20
2018-04-11T02:35:01.628Z,46.90
2018-04-11T02:36:03.083Z,47.10
2018-04-11T02:37:05.674Z,47.30
2018-04-11T02:38:07.826Z,47.90
2018-04-11T02:39:09.246Z,47.00
2018-04-11T02:40:10.685Z,47.30
2018-04-11T02:41:12.154Z,47.10
2018-04-11T02:42:13.626Z,47.20
2018-04-11T02:43:15.072Z,47.10
2018-04-11T02:44:16.494Z,47.30
2018-04-11T02:45:17.940Z,47.50
2018-04-11T02:46:19.394Z,47.30
2018-04-11T02:47:21.134Z,47.20
2018-04-11T02:48:22.583Z,47.10
2018-04-11T02:49:25.109Z,47.40
2018-04-11T02:50:26.580Z,47.10
2018-04-11T02:51:28.485Z,47.60
2018-04-11T02:52:30.242Z,47.40
2018-04-11T02:53:31.696Z,47.30
2018-04-11T02:54:33.156Z,47.40
2018-04-11T02:55:34.604Z,47.50
2018-04-11T02:56:36.067Z,47.30
2018-04-11T02:57:37.546Z,47.40
2018-04-11T02:58:38.992Z,47.60
2018-04-11T02:59:40.456Z,47.70
2018-04-11T03:00:41.908Z,47.40
2018-04-11T03:01:44.812Z,47.60
2018-04-11T03:02:47.272Z,48.10
2018-04-11T03:03:50.236Z,47.70
2018-04-11T03:04:52.464Z,48.30
2018-04-11T03:05:53.948Z,47.60
2018-04-11T03:06:55.459Z,47.60
2018-04-11T03:07:57.122Z,47.60
2018-04-11T03:08:58.714Z,47.40
2018-04-11T03:10:00.233Z,47.50
2018-04-11T03:11:01.761Z,47.80
2018-04-11T03:12:03.281Z,47.60
2018-04-11T03:13:04.785Z,47.70
2018-04-11T03:14:06.245Z,47.70
2018-04-11T03:15:07.725Z,47.60
2018-04-11T03:16:09.209Z,47.60
2018-04-11T03:17:10.690Z,47.50
2018-04-11T03:19:10.201Z,47.70
2018-04-11T03:20:12.444Z,48.40
2018-04-11T03:21:13.914Z,47.50
2018-04-11T03:22:56.598Z,47.80
2018-04-11T03:23:58.207Z,46.90
2018-04-11T03:25:00.818Z,47.80
2018-04-11T03:26:03.082Z,47.00
2018-04-11T03:27:04.558Z,47.00
2018-04-11T03:28:06.044Z,47.40
2018-04-11T03:29:08.276Z,48.70
2018-04-11T03:30:09.772Z,47.40
2018-04-11T03:31:12.734Z,47.80
2018-04-11T03:32:14.184Z,47.70
2018-04-11T03:33:15.662Z,47.60
2018-04-11T03:35:20.486Z,47.40
2018-04-11T03:36:22.010Z,47.10
2018-04-11T03:38:26.742Z,47.80
2018-04-11T03:39:28.254Z,47.90
2018-04-11T03:40:30.576Z,48.20
2018-04-11T03:42:18.573Z,47.90
2018-04-11T03:43:20.054Z,48.00
2018-04-11T03:45:37.820Z,48.00
2018-04-11T03:46:40.044Z,47.90
2018-04-11T03:47:41.528Z,47.70
2018-04-11T03:49:12.654Z,48.30
2018-04-11T03:50:14.155Z,47.90
2018-04-11T03:51:15.683Z,47.50
2018-04-11T03:52:17.179Z,47.50
2018-04-11T03:53:18.737Z,48.00
2018-04-11T03:54:20.266Z,48.00
2018-04-11T03:55:21.760Z,48.00
2018-04-11T03:57:51.563Z,48.00
2018-04-11T03:58:53.081Z,48.40
2018-04-11T03:59:55.306Z,49.00
2018-04-11T04:00:56.826Z,48.10
2018-04-11T04:01:58.845Z,48.30
2018-04-11T04:05:41.375Z,48.50
2018-04-11T04:09:16.385Z,48.90
2018-04-11T04:10:19.161Z,49.00
2018-04-11T04:11:20.838Z,48.50
2018-04-11T04:15:24.866Z,49.20
2018-04-11T04:22:06.944Z,48.50
2018-04-11T04:23:08.724Z,48.60
2018-04-11T04:24:10.522Z,48.80
2018-04-11T04:31:53.103Z,49.00
2018-04-11T04:32:55.706Z,49.60
2018-04-11T04:33:58.275Z,49.60
2018-04-11T04:36:43.089Z,49.60
2018-04-11T04:47:41.642Z,48.70
2018-04-11T04:50:03.023Z,49.30
2018-04-11T05:07:13.919Z,48.10
2018-04-11T05:08:18.302Z,48.10
2018-04-11T05:09:20.260Z,48.00
2018-04-11T05:18:21.032Z,48.80
2018-04-11T05:19:22.778Z,48.90
2018-04-11T05:24:29.994Z,49.20
2018-04-11T05:25:32.604Z,48.70
2018-04-11T05:26:34.428Z,48.50
2018-04-11T05:30:21.931Z,47.70
2018-04-11T05:32:43.877Z,48.30
2018-04-11T05:33:45.716Z,48.60
2018-04-11T05:34:47.486Z,48.20
2018-04-11T05:50:23.734Z,48.40
2018-04-11T05:55:18.656Z,47.90
2018-04-11T05:56:20.616Z,48.40
2018-04-11T05:57:22.727Z,48.10
2018-04-11T05:58:24.888Z,48.00
2018-04-11T05:59:26.892Z,47.80
2018-04-11T06:09:03.008Z,47.60
2018-04-11T06:14:30.055Z,46.60
2018-04-11T06:15:31.875Z,46.50
2018-04-11T06:16:33.600Z,46.40
2018-04-11T06:17:35.370Z,46.50
2018-04-11T06:18:37.232Z,46.70
2018-04-11T06:20:42.475Z,47.40
2018-04-11T06:24:21.873Z,48.70
2018-04-11T06:27:59.220Z,46.90
2018-04-11T06:33:18.836Z,47.00
2018-04-11T06:34:20.358Z,47.20
2018-04-11T06:35:22.596Z,47.70
2018-04-11T06:38:32.875Z,47.10
2018-04-11T06:39:34.392Z,47.10
2018-04-11T06:40:35.970Z,46.80
2018-04-11T06:47:10.212Z,47.40
2018-04-11T06:53:43.981Z,47.00
2018-04-11T06:55:48.812Z,45.60
2018-04-11T06:56:51.821Z,45.90
2018-04-11T06:57:54.837Z,46.90
2018-04-11T07:01:02.914Z,45.80
2018-04-11T07:04:10.886Z,46.50
2018-04-11T07:07:18.564Z,45.20
2018-04-11T07:09:23.077Z,45.70
2018-04-11T07:10:24.476Z,46.30
2018-04-11T07:11:25.884Z,45.70
2018-04-11T07:12:27.274Z,46.00
2018-04-11T07:14:32.761Z,45.60
2018-04-11T07:15:34.597Z,45.80
2018-04-11T07:16:35.997Z,45.40
2018-04-11T07:17:37.382Z,46.70
2018-04-11T07:20:45.311Z,46.20
2018-04-11T07:21:47.444Z,46.00
2018-04-11T07:22:49.559Z,46.10
2018-04-11T07:23:50.936Z,46.30
2018-04-11T07:24:52.638Z,45.80
2018-04-11T07:25:54.049Z,45.60
2018-04-11T07:26:56.542Z,46.70
2018-04-11T07:27:57.920Z,46.30
2018-04-11T07:28:59.338Z,45.60
2018-04-11T07:30:01.488Z,44.80
2018-04-11T07:31:03.631Z,45.30
2018-04-11T07:33:08.224Z,44.90
2018-04-11T07:34:09.638Z,45.00
2018-04-11T07:35:12.576Z,45.20
2018-04-11T07:36:13.968Z,45.10
2018-04-11T07:37:15.390Z,45.50
2018-04-11T07:38:17.550Z,45.90
2018-04-11T07:39:18.945Z,45.70
2018-04-11T07:40:20.392Z,45.90
2018-04-11T07:41:22.502Z,45.10
2018-04-11T07:43:26.994Z,44.90
2018-04-11T07:44:28.423Z,45.00
2018-04-11T07:45:30.613Z,45.20
2018-04-11T07:46:32.033Z,45.20
2018-04-11T07:47:33.430Z,45.40
2018-04-11T07:49:37.942Z,45.40
2018-04-11T07:50:39.350Z,45.30
2018-04-11T07:54:51.594Z,45.30
2018-04-11T07:55:54.744Z,45.00
2018-04-11T07:57:59.295Z,45.60
2018-04-11T08:00:04.547Z,45.40
2018-04-11T08:01:05.994Z,45.20
2018-04-11T08:02:07.407Z,44.80
2018-04-11T08:03:08.857Z,44.90
2018-04-11T08:04:10.196Z,44.90
2018-04-11T08:05:11.617Z,44.80
2018-04-11T08:06:13.044Z,45.40
2018-04-11T08:07:14.450Z,45.60
2018-04-11T08:09:18.947Z,45.10
2018-04-11T08:10:20.345Z,44.40
2018-04-11T08:11:21.766Z,44.30
2018-04-11T08:13:26.374Z,43.60
2018-04-11T08:14:28.602Z,44.10
2018-04-11T08:15:30.022Z,44.10
2018-04-11T08:16:31.456Z,44.80
2018-04-11T08:17:33.588Z,44.10
2018-04-11T08:18:34.978Z,44.20
2018-04-11T08:19:36.428Z,44.40
2018-04-11T08:22:44.109Z,43.80
2018-04-11T08:23:45.406Z,43.90
2018-04-11T08:24:47.527Z,43.40
2018-04-11T08:25:49.695Z,43.60
2018-04-11T08:26:52.895Z,44.10
2018-04-11T08:27:54.282Z,43.60
2018-04-11T08:28:55.716Z,43.50
2018-04-11T08:29:57.151Z,43.40
2018-04-11T08:30:59.276Z,43.20
2018-04-11T08:33:04.564Z,43.70
2018-04-11T08:34:06.689Z,43.70
2018-04-11T08:35:08.085Z,43.70
2018-04-11T08:36:09.497Z,43.80
2018-04-11T08:37:11.642Z,43.70
2018-04-11T08:38:13.046Z,43.70
2018-04-11T08:39:14.430Z,44.00
2018-04-11T08:40:15.830Z,43.50
2018-04-11T08:42:20.333Z,42.60
2018-04-11T08:43:21.735Z,42.90
2018-04-11T08:44:23.129Z,42.50
2018-04-11T08:45:24.549Z,42.70
2018-04-11T08:46:26.682Z,43.00
2018-04-11T08:47:29.557Z,43.00
2018-04-11T08:48:31.688Z,42.60
2018-04-11T08:49:33.121Z,42.40
2018-04-11T08:50:34.566Z,42.10
2018-04-11T08:51:35.960Z,41.60
2018-04-11T08:52:37.418Z,41.30
2018-04-11T08:53:38.772Z,41.40
2018-04-11T08:54:40.160Z,42.20
2018-04-11T08:55:41.537Z,41.60
2018-04-11T08:57:46.770Z,41.40
2018-04-11T08:58:48.140Z,41.70
2018-04-11T08:59:49.514Z,41.50
2018-04-11T09:00:51.648Z,41.10
2018-04-11T09:02:56.134Z,41.70
2018-04-11T09:03:58.643Z,41.60
2018-04-11T09:05:00.041Z,41.70
2018-04-11T09:06:01.456Z,42.30
2018-04-11T09:07:03.658Z,41.70
2018-04-11T09:08:05.810Z,41.20
2018-04-11T09:09:07.216Z,41.60
2018-04-11T09:12:14.810Z,41.70
2018-04-11T09:13:16.481Z,41.70
2018-04-11T09:14:17.866Z,41.00
2018-04-11T09:15:19.250Z,40.80
2018-04-11T09:16:20.646Z,40.90
2018-04-11T09:18:26.631Z,41.30
2018-04-11T09:20:31.899Z,41.00
2018-04-11T09:22:37.867Z,41.10
2018-04-11T09:23:40.015Z,41.50
2018-04-11T09:24:42.894Z,41.10
2018-04-11T09:29:56.865Z,40.10
2018-04-11T09:32:01.398Z,39.80
2018-04-11T09:33:02.841Z,40.20
2018-04-11T09:34:04.968Z,40.80
2018-04-11T09:35:06.355Z,41.10
2018-04-11T09:37:10.842Z,40.40
2018-04-11T09:38:12.984Z,40.10
2018-04-11T09:39:14.388Z,40.20
2018-04-11T09:41:19.989Z,40.20
2018-04-11T09:42:21.381Z,40.30
2018-04-11T09:43:22.773Z,40.50
2018-04-11T09:47:34.886Z,38.90
2018-04-11T09:49:39.381Z,38.70
2018-04-11T09:51:43.902Z,38.50
2018-04-11T09:52:46.028Z,37.80
2018-04-11T09:53:47.439Z,38.50
2018-04-11T09:54:48.844Z,38.70
2018-04-11T09:55:51.001Z,38.50
2018-04-11T09:56:52.393Z,38.70
2018-04-11T09:57:54.918Z,39.10
2018-04-11T09:58:56.314Z,39.40
2018-04-11T09:59:57.751Z,39.20
2018-04-11T10:02:06.012Z,38.80
2018-04-11T10:03:07.410Z,38.40
2018-04-11T10:06:15.053Z,38.90
2018-04-11T10:07:17.942Z,38.60
2018-04-11T10:09:22.437Z,38.60
2018-04-11T10:10:23.842Z,38.50
2018-04-11T10:11:25.960Z,38.20
2018-04-11T10:12:27.352Z,38.60
2018-04-11T10:13:29.856Z,38.10
2018-04-11T10:14:31.993Z,37.60
2018-04-11T10:16:36.542Z,38.20
2018-04-11T10:21:15.189Z,37.50
2018-04-11T10:25:26.702Z,35.90
2018-04-11T10:28:35.873Z,34.40
2018-04-11T10:29:37.992Z,34.80
2018-04-11T10:30:41.060Z,35.30
2018-04-11T10:33:50.421Z,34.70
2018-04-11T10:35:56.211Z,34.90
2018-04-11T10:42:00.435Z,37.80
2018-04-11T10:43:02.231Z,35.00
2018-04-11T10:47:32.029Z,35.20
2018-04-11T10:49:37.106Z,35.60
2018-04-11T10:59:16.469Z,34.40
2018-04-11T11:02:24.835Z,35.40
2018-04-11T11:14:03.872Z,33.90
2018-04-11T11:15:05.571Z,34.30
2018-04-11T11:16:07.566Z,33.40
2018-04-11T11:26:21.101Z,33.60
2018-04-11T11:28:25.591Z,32.10
2018-04-11T11:30:30.835Z,33.80
2018-04-11T11:38:38.057Z,33.90
2018-04-11T11:39:40.871Z,33.30
2018-04-11T11:42:29.639Z,32.60
2018-04-11T11:45:39.864Z,31.10
2018-04-11T11:51:10.644Z,30.40
2018-04-11T11:55:21.695Z,32.70
2018-04-11T11:56:23.162Z,32.40
2018-04-11T12:01:53.472Z,31.70
2018-04-11T12:02:55.258Z,31.30
2018-04-11T12:05:02.183Z,31.80
2018-04-11T12:06:05.343Z,31.90
2018-04-11T12:10:17.283Z,33.50
2018-04-11T12:12:02.993Z,32.50
2018-04-11T12:16:14.679Z,34.20
2018-04-11T12:17:16.424Z,33.90
2018-04-11T12:22:31.957Z,32.90
2018-04-11T12:24:36.921Z,33.70
2018-04-11T12:29:50.773Z,33.50
2018-04-11T12:30:52.551Z,33.40
2018-04-11T12:34:35.527Z,32.10
2018-04-11T12:37:44.377Z,34.30
2018-04-11T12:38:46.051Z,34.30
2018-04-11T12:44:19.811Z,32.70
2018-04-11T12:46:41.345Z,32.90
2018-04-11T12:47:43.339Z,33.70
2018-04-11T12:50:53.277Z,34.00
2018-04-11T12:51:55.072Z,34.30
2018-04-11T12:52:58.998Z,33.70
2018-04-11T12:56:07.417Z,32.80
2018-04-11T12:57:09.161Z,33.40
2018-04-11T12:59:14.224Z,34.50
2018-04-11T13:00:17.486Z,34.80
2018-04-11T13:12:37.170Z,32.90
2018-04-11T13:19:18.449Z,33.30
2018-04-11T13:27:49.120Z,34.70
2018-04-11T13:33:19.453Z,34.00
2018-04-11T13:34:21.156Z,33.70
2018-04-11T13:36:26.261Z,33.70
2018-04-11T13:37:28.067Z,33.30
2018-04-11T13:38:29.765Z,34.20
2018-04-11T13:39:31.481Z,34.10
2018-04-11T13:44:16.537Z,34.60
2018-04-11T13:45:18.228Z,34.70
2018-04-11T13:46:21.435Z,33.80
2018-04-11T13:49:29.325Z,35.00
2018-04-11T13:50:30.882Z,35.60
2018-04-11T13:51:33.473Z,35.10
2018-04-11T13:53:38.169Z,34.90
2018-04-11T13:54:39.573Z,34.70
2018-04-11T13:55:41.097Z,34.60
2018-04-11T13:56:42.509Z,34.10
2018-04-11T14:04:50.429Z,34.90
2018-04-11T14:07:11.193Z,35.20
2018-04-11T14:08:28.884Z,35.30
2018-04-11T14:13:29.536Z,35.20
2018-04-11T14:16:08.624Z,34.50
2018-04-11T14:17:10.283Z,35.40
2018-04-11T14:18:59.638Z,35.20
2018-04-11T14:23:10.738Z,35.30
2018-04-11T14:24:13.534Z,35.50
2018-04-11T14:29:51.279Z,34.10
2018-04-11T14:36:46.605Z,34.00
2018-04-11T14:37:48.299Z,33.70
2018-04-11T14:38:50.027Z,34.60
2018-04-11T14:40:56.583Z,34.60
2018-04-11T14:43:01.698Z,34.90
2018-04-11T14:44:03.391Z,35.20
2018-04-11T14:46:08.468Z,34.60
2018-04-11T14:50:49.186Z,34.70
2018-04-11T14:52:54.199Z,33.00
2018-04-11T15:04:40.632Z,30.70
2018-04-11T15:05:42.347Z,29.10
2018-04-11T15:06:44.141Z,29.70
2018-04-11T15:08:49.159Z,27.20
2018-04-11T15:09:51.579Z,26.30
2018-04-11T15:14:03.502Z,26.50
2018-04-11T15:15:06.678Z,26.70
2018-04-11T15:16:08.389Z,27.30
2018-04-11T15:18:32.271Z,27.40
2018-04-11T15:19:52.265Z,26.50
2018-04-11T15:20:53.978Z,27.50
2018-04-11T15:21:55.709Z,27.70
2018-04-11T15:22:57.376Z,27.80
2018-04-11T15:23:58.845Z,27.10
2018-04-11T15:27:07.566Z,23.90
2018-04-11T15:29:12.081Z,25.10
2018-04-11T15:32:20.436Z,25.00
2018-04-11T15:33:22.134Z,24.60
2018-04-11T15:37:01.682Z,26.10
2018-04-11T15:38:04.551Z,24.00
2018-04-11T15:39:06.350Z,24.00
2018-04-11T15:41:11.503Z,25.30
2018-04-11T15:43:17.446Z,25.60
2018-04-11T15:45:22.630Z,25.70
2018-04-11T15:46:37.907Z,24.80
2018-04-11T15:47:39.652Z,26.30
2018-04-11T15:48:41.324Z,27.00
2018-04-11T15:50:46.355Z,26.00
2018-04-11T15:52:51.411Z,25.20
2018-04-11T15:53:53.171Z,25.50
2018-04-11T16:01:04.801Z,27.50
2018-04-11T16:02:06.492Z,27.30
2018-04-11T16:03:09.769Z,26.30
2018-04-11T16:04:11.461Z,26.30
2018-04-11T16:06:16.474Z,27.90
2018-04-11T16:07:44.859Z,28.30
2018-04-11T16:09:49.934Z,26.30
2018-04-11T16:14:01.746Z,27.40
2018-04-11T16:18:40.302Z,28.10
2018-04-11T16:20:45.411Z,25.80
2018-04-11T16:29:11.859Z,29.80
2018-04-11T16:34:01.361Z,31.20
2018-04-11T16:36:07.897Z,31.90
2018-04-11T16:37:09.531Z,31.30
2018-04-11T16:39:41.493Z,29.20
2018-04-11T16:41:46.519Z,27.50
2018-04-11T16:45:38.017Z,26.70
2018-04-11T16:46:39.477Z,26.60
2018-04-11T16:49:28.295Z,26.80
2018-04-11T16:53:39.959Z,26.00
2018-04-11T16:56:48.355Z,25.80
2018-04-11T16:57:51.612Z,26.30
2018-04-11T17:01:00.126Z,25.80
2018-04-11T17:02:02.992Z,26.40
2018-04-11T17:04:08.069Z,25.80
2018-04-11T17:08:20.579Z,27.50
2018-04-11T17:10:25.656Z,26.00
2018-04-11T17:12:31.991Z,26.40
2018-04-11T17:14:37.040Z,25.60
2018-04-11T17:17:45.521Z,25.60
2018-04-11T17:19:50.721Z,25.80
2018-04-11T17:22:25.951Z,25.90
2018-04-11T17:25:01.359Z,26.30
2018-04-11T17:29:18.345Z,25.30
2018-04-11T17:33:06.486Z,25.90
2018-04-11T17:35:11.501Z,26.20
2018-04-11T17:37:16.746Z,26.60
2018-04-11T17:39:21.791Z,26.60
2018-04-11T17:42:30.742Z,26.10
2018-04-11T17:44:35.945Z,25.70
2018-04-11T17:48:05.223Z,26.00
2018-04-11T17:50:00.361Z,26.60
2018-04-11T17:51:03.259Z,26.20
2018-04-11T17:54:11.753Z,25.90
2018-04-11T17:55:15.005Z,25.70
2018-04-11T17:57:21.265Z,25.20
2018-04-11T17:58:22.974Z,25.40
2018-04-11T17:59:24.713Z,25.80
2018-04-11T18:01:29.765Z,26.00
2018-04-11T18:05:41.588Z,26.10
2018-04-11T18:07:46.704Z,26.10
2018-04-11T18:10:55.625Z,26.30
2018-04-11T18:13:02.205Z,26.10
2018-04-11T18:17:10.928Z,26.10
2018-04-11T18:18:12.506Z,26.20
2018-04-11T18:20:17.345Z,26.00
2018-04-11T18:21:19.043Z,26.20
2018-04-11T18:23:23.825Z,26.50
2018-04-11T18:24:26.151Z,26.30
2018-04-11T18:25:27.742Z,26.30
2018-04-11T18:27:32.937Z,26.30
2018-04-11T18:28:34.604Z,26.40
2018-04-11T18:30:39.640Z,27.00
2018-04-11T18:31:41.315Z,26.50
2018-04-11T18:34:04.610Z,26.60
2018-04-11T18:35:06.465Z,26.60
2018-04-11T18:36:08.176Z,26.60
2018-04-11T18:37:09.821Z,26.90
2018-04-11T18:38:11.579Z,26.60
2018-04-11T18:39:13.254Z,26.60
2018-04-11T18:40:14.934Z,26.50
2018-04-11T18:41:16.633Z,26.50
2018-04-11T18:45:32.382Z,26.50
2018-04-11T18:46:34.096Z,26.70
2018-04-11T18:47:35.820Z,26.60
2018-04-11T18:49:40.802Z,26.70
2018-04-11T18:51:47.242Z,26.50
2018-04-11T18:53:52.194Z,26.50
2018-04-11T18:54:53.981Z,26.70
2018-04-11T18:59:25.212Z,27.70
2018-04-11T19:00:28.204Z,27.60
2018-04-11T19:02:33.294Z,27.10
2018-04-11T19:04:38.372Z,27.40
2018-04-11T19:07:46.766Z,27.30
2018-04-11T19:09:51.872Z,27.40
2018-04-11T19:10:54.142Z,27.70
2018-04-11T19:11:55.771Z,27.60
2018-04-11T19:14:02.232Z,27.30
2018-04-11T19:15:03.866Z,27.50
2018-04-11T19:16:05.762Z,27.90
2018-04-11T19:17:07.449Z,27.80
2018-04-11T19:18:09.172Z,27.60
2018-04-11T19:19:11.006Z,27.40
2018-04-11T19:20:54.653Z,27.80
2018-04-11T19:21:56.372Z,27.70
2018-04-11T19:24:01.464Z,27.70
2018-04-11T19:25:03.080Z,27.70
2018-04-11T19:26:04.847Z,27.40
2018-04-11T19:27:06.560Z,27.70
2018-04-11T19:29:11.521Z,27.60
2018-04-11T19:30:14.654Z,28.00
2018-04-11T19:31:17.100Z,28.60
2018-04-11T19:32:19.526Z,27.80
2018-04-11T19:33:21.138Z,28.10
2018-04-11T19:39:57.900Z,27.90
2018-04-11T19:41:00.354Z,28.30
2018-04-11T19:47:33.656Z,28.30
2018-04-11T19:49:38.738Z,28.00
2018-04-11T19:50:40.432Z,28.10
2018-04-11T19:51:42.114Z,27.90
2018-04-11T19:53:57.918Z,27.90
2018-04-11T19:55:00.466Z,28.40
2018-04-11T19:56:03.041Z,28.10
2018-04-11T19:58:08.221Z,28.50
2018-04-11T19:59:09.928Z,28.50
2018-04-11T20:00:11.501Z,28.30
2018-04-11T20:01:13.096Z,28.60
2018-04-11T20:02:15.492Z,28.80
2018-04-11T20:03:17.922Z,28.30
2018-04-11T20:04:19.628Z,28.10
2018-04-11T20:05:21.292Z,28.40
2018-04-11T20:06:22.960Z,27.80
2018-04-11T20:07:24.726Z,28.10
2018-04-11T20:08:26.333Z,28.60
2018-04-11T20:09:29.535Z,28.00
2018-04-11T20:10:31.972Z,29.30
2018-04-11T20:11:33.674Z,28.90
2018-04-11T20:12:35.313Z,28.80
2018-04-11T20:13:37.046Z,28.50
2018-04-11T20:14:38.793Z,28.80
2018-04-11T20:15:40.450Z,28.80
2018-04-11T20:16:42.125Z,28.80
2018-04-11T20:17:43.846Z,28.60
2018-04-11T20:19:37.016Z,28.00
2018-04-11T20:20:38.785Z,28.50
2018-04-11T20:21:40.492Z,28.60
2018-04-11T20:22:42.224Z,28.60
2018-04-11T20:23:43.926Z,28.80
2018-04-11T20:24:45.654Z,28.50
2018-04-11T20:26:51.013Z,28.50
2018-04-11T20:27:52.632Z,28.10
2018-04-11T20:28:54.322Z,28.10
2018-04-11T20:29:55.980Z,28.20
2018-04-11T20:32:01.354Z,28.10
2018-04-11T20:33:04.194Z,28.00
2018-04-11T20:34:05.960Z,28.70
2018-04-11T20:35:07.638Z,28.80
2018-04-11T20:36:09.335Z,28.80
2018-04-11T20:37:10.941Z,29.10
2018-04-11T20:38:12.653Z,28.80
2018-04-11T20:39:14.218Z,29.00
2018-04-11T20:40:15.904Z,28.90
2018-04-11T20:41:17.971Z,28.80
2018-04-11T20:42:19.570Z,29.00
2018-04-11T20:43:21.230Z,28.80
2018-04-11T20:45:46.625Z,29.10
2018-04-11T20:46:48.364Z,29.10
2018-04-11T20:47:50.096Z,29.10
2018-04-11T20:48:51.817Z,28.70
2018-04-11T20:49:54.238Z,28.80
2018-04-11T20:50:55.790Z,28.70
2018-04-11T20:51:57.854Z,28.80
2018-04-11T20:53:00.319Z,28.50
2018-04-11T20:54:02.025Z,28.60
2018-04-11T20:55:04.840Z,29.00
2018-04-11T20:56:06.534Z,29.00
2018-04-11T20:57:08.230Z,28.80
2018-04-11T20:58:09.919Z,28.80
2018-04-11T20:59:11.560Z,28.80
2018-04-11T21:00:14.210Z,29.30
2018-04-11T21:01:15.843Z,28.80
2018-04-11T21:02:17.562Z,28.90
2018-04-11T21:09:56.186Z,29.60
2018-04-11T21:10:57.858Z,29.40
2018-04-11T21:11:59.478Z,29.20
2018-04-11T21:13:01.925Z,29.70
2018-04-11T21:14:03.931Z,29.10
2018-04-11T21:15:05.630Z,29.10
2018-04-11T21:16:59.976Z,29.10
2018-04-11T21:18:02.420Z,29.40
2018-04-11T21:19:04.075Z,28.80
2018-04-11T21:20:05.822Z,28.90
2018-04-11T21:21:07.393Z,29.00
2018-04-11T21:24:52.466Z,29.10
2018-04-11T21:25:54.191Z,29.10
2018-04-11T21:26:56.626Z,30.00
2018-04-11T21:27:58.243Z,29.50
2018-04-11T21:29:50.755Z,29.30
2018-04-11T21:30:52.344Z,29.40
2018-04-11T21:31:54.360Z,29.10
2018-04-11T21:32:55.984Z,29.60
2018-04-11T21:33:57.762Z,29.70
2018-04-11T21:34:59.414Z,29.30
2018-04-11T21:36:01.078Z,29.40
2018-04-11T21:43:45.567Z,29.20
2018-04-11T21:44:47.227Z,29.30
2018-04-11T21:45:49.308Z,29.40
2018-04-11T21:46:50.982Z,29.30
2018-04-11T21:48:56.690Z,30.10
2018-04-11T21:49:59.124Z,30.30
2018-04-11T21:51:00.826Z,30.00
2018-04-11T21:52:02.556Z,29.80
2018-04-11T21:53:04.266Z,30.00
2018-04-11T21:54:07.120Z,29.70
2018-04-11T21:55:08.801Z,29.80
2018-04-11T21:56:10.529Z,29.70
2018-04-11T21:57:12.217Z,29.70
2018-04-11T21:58:15.298Z,30.20
2018-04-11T21:59:16.938Z,30.00
2018-04-11T22:00:19.236Z,29.90
2018-04-11T22:01:21.536Z,30.30
2018-04-11T22:02:24.330Z,30.20
2018-04-11T22:03:26.022Z,30.00
2018-04-11T22:04:27.682Z,30.00
2018-04-11T22:05:29.406Z,29.90
2018-04-11T22:11:38.012Z,29.90
2018-04-11T22:14:46.596Z,30.30
2018-04-11T22:15:48.322Z,30.50
2018-04-11T22:16:50.402Z,31.00
2018-04-11T22:18:24.756Z,30.10
2018-04-11T22:22:02.910Z,30.50
2018-04-11T22:23:04.626Z,30.60
2018-04-11T22:24:06.641Z,30.60
2018-04-11T22:25:09.826Z,30.70
2018-04-11T22:27:48.809Z,30.90
2018-04-11T22:28:51.121Z,31.70
2018-04-11T22:29:52.772Z,30.70
2018-04-11T22:30:54.456Z,30.90
2018-04-11T22:31:56.132Z,30.80
2018-04-11T22:32:57.858Z,30.80
2018-04-11T22:33:59.511Z,30.80
2018-04-11T22:35:01.524Z,30.80
2018-04-11T22:36:03.292Z,31.20
2018-04-11T22:37:04.977Z,31.30
2018-04-11T22:38:06.643Z,31.30
2018-04-11T22:39:09.177Z,31.50